createdAt,value
2023-03-27T00:00:03.400Z,4.15
2023-03-27T00:00:34.837Z,3.53
2023-03-27T00:01:06.351Z,3.28
2023-03-27T00:01:37.728Z,3.80
2023-03-27T00:02:09.185Z,3.85
2023-03-27T00:02:40.739Z,7.30
2023-03-27T00:03:13.452Z,4.30
2023-03-27T00:03:45.232Z,3.70
2023-03-27T00:04:17.964Z,4.07
2023-03-27T00:04:50.161Z,4.32
2023-03-27T00:05:21.549Z,4.05
2023-03-27T00:06:05.481Z,4.18
2023-03-27T00:06:37.005Z,4.40
2023-03-27T00:07:08.330Z,4.03
2023-03-27T00:07:39.732Z,3.95
2023-03-27T00:08:11.596Z,4.90
2023-03-27T00:08:43.663Z,4.47
2023-03-27T00:09:18.461Z,3.75
2023-03-27T00:09:49.891Z,4.23
2023-03-27T00:10:25.330Z,4.75
2023-03-27T00:10:57.269Z,4.93
2023-03-27T00:11:28.932Z,4.15
2023-03-27T00:12:00.314Z,4.68
2023-03-27T00:12:31.695Z,4.00
2023-03-27T00:13:04.042Z,3.80
2023-03-27T00:13:36.082Z,4.30
2023-03-27T00:14:13.985Z,4.50
2023-03-27T00:14:45.350Z,4.80
2023-03-27T00:15:17.396Z,4.10
2023-03-27T00:15:48.984Z,4.28
2023-03-27T00:16:21.190Z,4.03
2023-03-27T00:16:52.697Z,4.32
2023-03-27T00:17:24.196Z,5.15
2023-03-27T00:17:55.564Z,3.90
2023-03-27T00:18:27.499Z,4.00
2023-03-27T00:18:59.044Z,4.43
2023-03-27T00:19:30.437Z,4.47
2023-03-27T00:20:01.885Z,4.22
2023-03-27T00:20:33.492Z,4.60
2023-03-27T00:21:04.974Z,4.03
2023-03-27T00:21:36.363Z,4.38
2023-03-27T00:22:07.765Z,6.10
2023-03-27T00:22:39.091Z,3.83
2023-03-27T00:23:10.443Z,4.35
2023-03-27T00:23:41.916Z,4.32
2023-03-27T00:24:13.272Z,4.03
2023-03-27T00:24:44.707Z,4.05
2023-03-27T00:25:16.120Z,3.70
2023-03-27T00:25:48.358Z,3.58
2023-03-27T00:26:20.292Z,3.95
2023-03-27T00:26:51.670Z,4.40
2023-03-27T00:27:23.035Z,4.03
2023-03-27T00:27:54.802Z,4.88
2023-03-27T00:28:26.854Z,3.85
2023-03-27T00:28:58.252Z,4.10
2023-03-27T00:29:29.638Z,4.13
2023-03-27T00:30:00.970Z,4.15
2023-03-27T00:30:32.412Z,3.60
2023-03-27T00:31:03.997Z,3.63
2023-03-27T00:31:35.366Z,4.35
2023-03-27T00:32:06.902Z,3.53
2023-03-27T00:32:38.289Z,3.70
2023-03-27T00:33:11.306Z,3.85
2023-03-27T00:33:42.822Z,3.67
2023-03-27T00:34:14.392Z,4.27
2023-03-27T00:34:45.822Z,3.80
2023-03-27T00:35:17.209Z,3.75
2023-03-27T00:35:49.718Z,3.88
2023-03-27T00:36:21.265Z,4.33
2023-03-27T00:36:52.642Z,4.93
2023-03-27T00:37:24.001Z,3.83
2023-03-27T00:37:55.668Z,3.80
2023-03-27T00:38:27.053Z,3.90
2023-03-27T00:38:58.405Z,3.63
2023-03-27T00:39:29.905Z,4.30
2023-03-27T00:40:01.261Z,3.65
2023-03-27T00:40:32.659Z,4.00
2023-03-27T00:41:04.094Z,4.28
2023-03-27T00:41:35.513Z,4.00
2023-03-27T00:42:08.804Z,3.88
2023-03-27T00:42:40.202Z,3.90
2023-03-27T00:43:25.419Z,3.30
2023-03-27T00:43:56.795Z,3.70
2023-03-27T00:44:29.752Z,4.07
2023-03-27T00:45:01.572Z,4.00
2023-03-27T00:45:33.634Z,3.88
2023-03-27T00:46:08.257Z,4.03
2023-03-27T00:46:42.401Z,4.05
2023-03-27T00:47:13.762Z,4.03
2023-03-27T00:47:46.371Z,4.05
2023-03-27T00:48:18.216Z,4.55
2023-03-27T00:48:51.699Z,3.95
2023-03-27T00:49:26.389Z,3.95
2023-03-27T00:49:59.008Z,4.22
2023-03-27T00:50:32.222Z,4.45
2023-03-27T00:51:04.361Z,3.70
2023-03-27T00:51:36.539Z,4.10
2023-03-27T00:52:08.203Z,3.92
2023-03-27T00:52:41.203Z,3.42
2023-03-27T00:53:14.964Z,3.67
2023-03-27T00:53:46.921Z,3.63
2023-03-27T00:54:21.385Z,3.65
2023-03-27T00:54:52.776Z,3.72
2023-03-27T00:55:27.162Z,3.00
2023-03-27T00:56:06.822Z,2.85
2023-03-27T00:56:38.646Z,4.10
2023-03-27T00:57:12.563Z,3.55
2023-03-27T00:57:45.927Z,3.25
2023-03-27T00:58:19.529Z,3.20
2023-03-27T00:58:53.423Z,3.60
2023-03-27T00:59:27.560Z,3.70
2023-03-27T00:59:59.961Z,3.83
2023-03-27T01:00:33.646Z,3.67
2023-03-27T01:01:05.326Z,3.83
2023-03-27T01:01:36.878Z,3.40
2023-03-27T01:02:08.874Z,3.60
2023-03-27T01:02:40.617Z,3.90
2023-03-27T01:03:12.381Z,3.15
2023-03-27T01:03:45.235Z,3.40
2023-03-27T01:04:16.966Z,3.85
2023-03-27T01:04:48.912Z,3.50
2023-03-27T01:05:20.615Z,3.38
2023-03-27T01:05:53.142Z,2.97
2023-03-27T01:06:25.065Z,2.90
2023-03-27T01:06:56.547Z,3.13
2023-03-27T01:07:27.858Z,3.50
2023-03-27T01:08:00.503Z,3.00
2023-03-27T01:08:34.628Z,3.28
2023-03-27T01:09:06.091Z,2.85
2023-03-27T01:09:37.783Z,3.30
2023-03-27T01:10:09.348Z,2.30
2023-03-27T01:10:58.203Z,2.90
2023-03-27T01:11:37.094Z,3.15
2023-03-27T01:12:30.140Z,2.80
2023-03-27T01:13:19.012Z,3.45
2023-03-27T01:14:08.109Z,3.45
2023-03-27T01:14:51.435Z,3.10
2023-03-27T01:15:43.952Z,3.03
2023-03-27T01:16:23.818Z,3.30
2023-03-27T01:17:01.246Z,2.80
2023-03-27T01:17:42.032Z,3.22
2023-03-27T01:18:25.706Z,2.88
2023-03-27T01:18:57.060Z,3.30
2023-03-27T01:19:28.381Z,3.30
2023-03-27T01:20:15.164Z,3.05
2023-03-27T01:20:46.479Z,2.78
2023-03-27T01:21:43.403Z,2.47
2023-03-27T01:22:14.726Z,3.97
2023-03-27T01:22:58.006Z,2.88
2023-03-27T01:23:35.862Z,3.20
2023-03-27T01:24:29.884Z,3.70
2023-03-27T01:25:10.401Z,2.92
2023-03-27T01:25:47.594Z,2.80
2023-03-27T01:26:39.188Z,3.47
2023-03-27T01:27:22.282Z,3.28
2023-03-27T01:28:10.866Z,3.15
2023-03-27T01:28:57.718Z,2.75
2023-03-27T01:29:35.002Z,2.83
2023-03-27T01:30:12.183Z,2.83
2023-03-27T01:30:49.581Z,3.15
2023-03-27T01:31:30.350Z,3.10
2023-03-27T01:32:01.769Z,2.92
2023-03-27T01:32:42.386Z,2.73
2023-03-27T01:33:13.825Z,3.05
2023-03-27T01:34:04.116Z,2.60
2023-03-27T01:34:41.523Z,3.25
2023-03-27T01:35:18.888Z,3.00
2023-03-27T01:35:53.207Z,3.05
2023-03-27T01:36:27.342Z,3.65
2023-03-27T01:37:07.700Z,3.60
2023-03-27T01:37:41.875Z,2.90
2023-03-27T01:38:25.506Z,3.42
2023-03-27T01:38:56.923Z,3.00
2023-03-27T01:39:33.321Z,3.15
2023-03-27T01:40:09.507Z,3.05
2023-03-27T01:40:47.511Z,3.10
2023-03-27T01:41:18.822Z,2.80
2023-03-27T01:41:53.214Z,3.05
2023-03-27T01:42:30.566Z,3.65
2023-03-27T01:43:01.943Z,3.20
2023-03-27T01:43:59.782Z,3.10
2023-03-27T01:44:43.837Z,2.75
2023-03-27T01:45:19.280Z,3.33
2023-03-27T01:46:01.063Z,2.67
2023-03-27T01:46:35.451Z,2.95
2023-03-27T01:47:14.300Z,3.00
2023-03-27T01:47:48.500Z,3.20
2023-03-27T01:48:25.923Z,2.80
2023-03-27T01:49:01.301Z,3.35
2023-03-27T01:49:35.688Z,2.90
2023-03-27T01:50:33.379Z,2.78
2023-03-27T01:51:16.914Z,2.75
2023-03-27T01:51:54.517Z,2.80
2023-03-27T01:52:29.095Z,2.60
2023-03-27T01:53:03.638Z,2.22
2023-03-27T01:53:37.777Z,2.45
2023-03-27T01:54:16.735Z,2.47
2023-03-27T01:54:50.022Z,2.53
2023-03-27T01:55:23.820Z,2.33
2023-03-27T01:56:05.781Z,2.70
2023-03-27T01:57:00.125Z,2.97
2023-03-27T01:57:36.851Z,2.17
2023-03-27T01:58:14.409Z,2.63
2023-03-27T01:58:47.881Z,1.90
2023-03-27T01:59:20.999Z,3.20
2023-03-27T02:00:18.783Z,2.55
2023-03-27T02:00:53.323Z,2.30
2023-03-27T02:01:28.337Z,2.75
2023-03-27T02:02:05.334Z,2.77
2023-03-27T02:02:38.426Z,1.65
2023-03-27T02:03:13.234Z,2.15
2023-03-27T02:03:46.633Z,2.38
2023-03-27T02:04:20.790Z,2.30
2023-03-27T02:04:54.464Z,2.25
2023-03-27T02:05:41.640Z,2.47
2023-03-27T02:06:25.438Z,2.42
2023-03-27T02:07:02.680Z,1.97
2023-03-27T02:07:43.283Z,2.10
2023-03-27T02:08:14.712Z,2.10
2023-03-27T02:09:03.484Z,2.15
2023-03-27T02:09:40.589Z,2.42
2023-03-27T02:10:13.758Z,2.30
2023-03-27T02:10:48.088Z,2.30
2023-03-27T02:11:20.235Z,1.70
2023-03-27T02:11:51.577Z,2.70
2023-03-27T02:12:45.886Z,2.75
2023-03-27T02:13:19.139Z,2.83
2023-03-27T02:13:53.672Z,2.40
2023-03-27T02:14:27.945Z,2.53
2023-03-27T02:15:24.600Z,2.67
2023-03-27T02:15:57.675Z,2.30
2023-03-27T02:16:31.070Z,2.33
2023-03-27T02:17:05.690Z,3.00
2023-03-27T02:17:38.979Z,2.80
2023-03-27T02:18:12.204Z,2.65
2023-03-27T02:18:46.310Z,2.80
2023-03-27T02:19:22.738Z,2.55
2023-03-27T02:19:56.576Z,2.50
2023-03-27T02:20:27.996Z,2.58
2023-03-27T02:20:59.484Z,3.42
2023-03-27T02:21:30.857Z,2.78
2023-03-27T02:22:02.299Z,2.42
2023-03-27T02:22:37.705Z,2.60
2023-03-27T02:23:10.197Z,2.75
2023-03-27T02:23:42.007Z,2.10
2023-03-27T02:24:13.978Z,2.38
2023-03-27T02:24:45.327Z,2.67
2023-03-27T02:25:35.364Z,2.97
2023-03-27T02:26:09.505Z,2.47
2023-03-27T02:26:41.160Z,2.60
2023-03-27T02:27:16.923Z,2.97
2023-03-27T02:27:50.078Z,2.50
2023-03-27T02:28:27.673Z,2.50
2023-03-27T02:29:28.176Z,2.70
2023-03-27T02:30:14.731Z,3.42
2023-03-27T02:31:05.809Z,2.40
2023-03-27T02:32:00.575Z,2.40
2023-03-27T02:32:32.058Z,2.45
2023-03-27T02:33:09.844Z,2.65
2023-03-27T02:33:41.176Z,2.13
2023-03-27T02:34:28.200Z,2.20
2023-03-27T02:35:06.412Z,2.08
2023-03-27T02:35:53.162Z,2.00
2023-03-27T02:36:24.521Z,1.50
2023-03-27T02:37:01.706Z,2.00
2023-03-27T02:37:33.278Z,1.90
2023-03-27T02:38:23.379Z,2.13
2023-03-27T02:39:00.967Z,1.77
2023-03-27T02:39:32.327Z,1.73
2023-03-27T02:40:18.611Z,2.35
2023-03-27T02:41:08.645Z,1.50
2023-03-27T02:41:49.089Z,1.67
2023-03-27T02:42:22.885Z,2.00
2023-03-27T02:43:09.349Z,1.27
2023-03-27T02:44:03.673Z,1.48
2023-03-27T02:44:35.130Z,1.33
2023-03-27T02:45:26.778Z,1.45
2023-03-27T02:46:18.413Z,1.35
2023-03-27T02:46:55.974Z,1.95
2023-03-27T02:47:33.203Z,1.65
2023-03-27T02:48:08.764Z,1.33
2023-03-27T02:48:42.761Z,1.33
2023-03-27T02:49:18.459Z,0.95
2023-03-27T02:49:52.472Z,1.77
2023-03-27T02:50:26.424Z,1.40
2023-03-27T02:51:00.432Z,1.07
2023-03-27T02:51:34.567Z,1.30
2023-03-27T02:52:35.108Z,1.48
2023-03-27T02:53:07.737Z,1.25
2023-03-27T02:53:42.286Z,1.60
2023-03-27T02:54:22.232Z,1.70
2023-03-27T02:54:55.907Z,2.20
2023-03-27T02:55:38.878Z,1.60
2023-03-27T02:56:11.311Z,1.75
2023-03-27T02:56:48.120Z,1.58
2023-03-27T02:57:24.493Z,1.50
2023-03-27T02:57:58.271Z,1.50
2023-03-27T02:58:55.739Z,1.50
2023-03-27T02:59:35.674Z,1.38
2023-03-27T03:00:08.627Z,1.30
2023-03-27T03:00:41.562Z,1.65
2023-03-27T03:01:15.202Z,1.45
2023-03-27T03:01:46.835Z,1.27
2023-03-27T03:02:22.402Z,1.48
2023-03-27T03:02:58.372Z,1.70
2023-03-27T03:03:32.600Z,1.77
2023-03-27T03:04:10.374Z,1.92
2023-03-27T03:04:48.234Z,1.30
2023-03-27T03:05:21.230Z,1.58
2023-03-27T03:05:52.572Z,1.90
2023-03-27T03:06:24.192Z,1.45
2023-03-27T03:06:55.993Z,1.53
2023-03-27T03:07:27.484Z,1.50
2023-03-27T03:07:58.980Z,1.48
2023-03-27T03:08:30.498Z,1.55
2023-03-27T03:09:02.577Z,1.48
2023-03-27T03:09:34.056Z,1.55
2023-03-27T03:10:12.789Z,1.50
2023-03-27T03:10:44.687Z,1.57
2023-03-27T03:11:16.048Z,1.75
2023-03-27T03:11:49.420Z,1.73
2023-03-27T03:12:20.863Z,1.67
2023-03-27T03:12:52.215Z,1.50
2023-03-27T03:13:23.615Z,1.77
2023-03-27T03:13:55.315Z,1.33
2023-03-27T03:14:30.161Z,1.20
2023-03-27T03:15:01.595Z,1.50
2023-03-27T03:15:33.007Z,2.20
2023-03-27T03:16:04.709Z,1.35
2023-03-27T03:16:36.180Z,1.58
2023-03-27T03:17:07.576Z,1.60
2023-03-27T03:17:38.987Z,2.00
2023-03-27T03:18:10.483Z,1.52
2023-03-27T03:18:41.846Z,1.42
2023-03-27T03:19:13.217Z,2.00
2023-03-27T03:19:44.683Z,2.20
2023-03-27T03:20:16.154Z,2.00
2023-03-27T03:20:47.566Z,1.50
2023-03-27T03:21:18.946Z,1.70
2023-03-27T03:21:50.393Z,1.60
2023-03-27T03:22:21.804Z,1.70
2023-03-27T03:22:53.198Z,2.45
2023-03-27T03:23:24.605Z,1.97
2023-03-27T03:23:58.565Z,1.90
2023-03-27T03:24:30.620Z,1.77
2023-03-27T03:25:02.029Z,1.88
2023-03-27T03:25:33.426Z,1.87
2023-03-27T03:26:05.092Z,1.95
2023-03-27T03:26:36.500Z,1.35
2023-03-27T03:27:08.143Z,2.20
2023-03-27T03:27:39.563Z,1.60
2023-03-27T03:28:10.901Z,1.80
2023-03-27T03:28:42.529Z,1.42
2023-03-27T03:29:32.990Z,1.55
2023-03-27T03:30:04.913Z,1.97
2023-03-27T03:30:36.297Z,1.48
2023-03-27T03:31:07.670Z,1.63
2023-03-27T03:31:39.073Z,1.48
2023-03-27T03:32:10.648Z,1.73
2023-03-27T03:32:42.099Z,1.77
2023-03-27T03:33:13.667Z,1.80
2023-03-27T03:33:45.018Z,2.10
2023-03-27T03:34:17.630Z,1.55
2023-03-27T03:34:49.003Z,1.60
2023-03-27T03:35:24.093Z,1.80
2023-03-27T03:35:56.184Z,2.28
2023-03-27T03:36:27.604Z,1.80
2023-03-27T03:36:59.884Z,2.28
2023-03-27T03:37:31.247Z,2.20
2023-03-27T03:38:02.590Z,1.95
2023-03-27T03:38:37.891Z,1.83
2023-03-27T03:39:09.668Z,2.17
2023-03-27T03:39:41.080Z,2.17
2023-03-27T03:40:12.626Z,2.20
2023-03-27T03:40:44.005Z,2.40
2023-03-27T03:41:15.455Z,1.63
2023-03-27T03:41:47.164Z,2.92
2023-03-27T03:42:23.310Z,2.03
2023-03-27T03:42:55.772Z,2.45
2023-03-27T03:43:28.208Z,2.80
2023-03-27T03:43:59.610Z,2.08
2023-03-27T03:44:31.007Z,2.10
2023-03-27T03:45:02.398Z,2.25
2023-03-27T03:45:33.742Z,2.83
2023-03-27T03:46:05.242Z,2.10
2023-03-27T03:46:36.670Z,2.13
2023-03-27T03:47:08.441Z,1.88
2023-03-27T03:47:40.207Z,2.33
2023-03-27T03:48:11.623Z,2.38
2023-03-27T03:48:42.968Z,1.80
2023-03-27T03:49:14.346Z,2.35
2023-03-27T03:49:45.703Z,2.00
2023-03-27T03:50:17.117Z,2.90
2023-03-27T03:50:49.114Z,1.88
2023-03-27T03:51:20.489Z,2.42
2023-03-27T03:52:04.104Z,2.08
2023-03-27T03:52:36.363Z,2.65
2023-03-27T03:53:07.726Z,2.05
2023-03-27T03:53:39.160Z,2.22
2023-03-27T03:54:10.527Z,2.27
2023-03-27T03:54:41.982Z,2.28
2023-03-27T03:55:13.412Z,2.47
2023-03-27T03:55:45.262Z,2.30
2023-03-27T03:56:16.670Z,2.15
2023-03-27T03:56:48.086Z,2.60
2023-03-27T03:57:19.510Z,2.13
2023-03-27T03:57:51.068Z,2.65
2023-03-27T03:58:34.862Z,2.30
2023-03-27T03:59:07.064Z,1.95
2023-03-27T03:59:38.423Z,2.47
2023-03-27T04:00:10.097Z,2.60
2023-03-27T04:00:41.478Z,2.40
2023-03-27T04:01:12.920Z,2.17
2023-03-27T04:01:44.284Z,2.08
2023-03-27T04:02:15.969Z,2.30
2023-03-27T04:02:48.934Z,2.30
2023-03-27T04:03:20.497Z,1.88
2023-03-27T04:03:52.126Z,2.63
2023-03-27T04:04:23.605Z,1.73
2023-03-27T04:04:55.543Z,1.90
2023-03-27T04:05:26.888Z,2.58
2023-03-27T04:05:58.768Z,2.67
2023-03-27T04:06:30.342Z,1.92
2023-03-27T04:07:01.688Z,2.10
2023-03-27T04:07:33.034Z,2.13
2023-03-27T04:08:05.395Z,2.05
2023-03-27T04:08:36.847Z,2.07
2023-03-27T04:09:08.208Z,1.98
2023-03-27T04:09:39.579Z,2.25
2023-03-27T04:10:11.595Z,2.05
2023-03-27T04:10:43.101Z,2.40
2023-03-27T04:11:14.469Z,2.08
2023-03-27T04:11:45.850Z,1.95
2023-03-27T04:12:17.754Z,1.65
2023-03-27T04:12:49.719Z,1.70
2023-03-27T04:13:21.115Z,2.20
2023-03-27T04:13:52.555Z,1.80
2023-03-27T04:14:23.928Z,2.00
2023-03-27T04:14:55.565Z,2.10
2023-03-27T04:15:26.950Z,1.88
2023-03-27T04:15:58.347Z,1.50
2023-03-27T04:16:29.760Z,2.45
2023-03-27T04:17:01.191Z,1.27
2023-03-27T04:17:33.066Z,1.65
2023-03-27T04:18:04.703Z,2.08
2023-03-27T04:18:36.614Z,1.65
2023-03-27T04:19:08.105Z,1.45
2023-03-27T04:19:39.506Z,1.92
2023-03-27T04:20:11.743Z,1.85
2023-03-27T04:20:43.147Z,1.77
2023-03-27T04:21:14.888Z,1.35
2023-03-27T04:21:46.393Z,1.40
2023-03-27T04:22:17.757Z,1.65
2023-03-27T04:22:49.188Z,2.25
2023-03-27T04:23:20.540Z,1.40
2023-03-27T04:23:52.068Z,1.80
2023-03-27T04:24:23.561Z,1.38
2023-03-27T04:24:54.963Z,1.48
2023-03-27T04:25:26.292Z,1.17
2023-03-27T04:25:58.124Z,1.25
2023-03-27T04:26:29.901Z,1.70
2023-03-27T04:27:01.411Z,1.73
2023-03-27T04:27:32.786Z,1.17
2023-03-27T04:28:04.316Z,1.50
2023-03-27T04:28:35.694Z,1.50
2023-03-27T04:29:07.042Z,1.80
2023-03-27T04:29:38.497Z,1.00
2023-03-27T04:30:11.190Z,1.50
2023-03-27T04:30:43.122Z,1.95
2023-03-27T04:31:14.546Z,1.60
2023-03-27T04:31:46.041Z,1.75
2023-03-27T04:32:17.440Z,1.70
2023-03-27T04:32:49.710Z,1.58
2023-03-27T04:33:21.119Z,1.60
2023-03-27T04:33:52.628Z,1.10
2023-03-27T04:34:24.328Z,1.75
2023-03-27T04:34:55.685Z,1.60
2023-03-27T04:35:27.058Z,1.50
2023-03-27T04:36:06.084Z,1.50
2023-03-27T04:36:39.080Z,1.30
2023-03-27T04:37:10.483Z,1.50
2023-03-27T04:37:42.022Z,1.02
2023-03-27T04:38:13.886Z,1.10
2023-03-27T04:38:45.221Z,1.02
2023-03-27T04:39:17.150Z,0.82
2023-03-27T04:39:48.629Z,0.50
2023-03-27T04:40:19.994Z,0.90
2023-03-27T04:40:51.380Z,0.43
2023-03-27T04:41:22.805Z,0.35
2023-03-27T04:41:54.134Z,0.50
2023-03-27T04:42:25.566Z,0.22
2023-03-27T04:42:56.918Z,0.70
2023-03-27T04:43:28.270Z,0.45
2023-03-27T04:43:59.614Z,0.73
2023-03-27T04:44:31.013Z,0.50
2023-03-27T04:45:02.366Z,1.05
2023-03-27T04:45:33.816Z,0.50
2023-03-27T04:46:05.674Z,0.60
2023-03-27T04:46:37.091Z,0.60
2023-03-27T04:47:09.136Z,0.32
2023-03-27T04:47:40.975Z,0.55
2023-03-27T04:48:12.442Z,0.47
2023-03-27T04:48:43.886Z,0.80
2023-03-27T04:49:15.793Z,1.20
2023-03-27T04:49:47.147Z,0.95
2023-03-27T04:50:18.532Z,0.45
2023-03-27T04:50:49.972Z,0.35
2023-03-27T04:51:21.335Z,0.60
2023-03-27T04:51:52.742Z,0.50
2023-03-27T04:52:24.082Z,0.65
2023-03-27T04:52:55.495Z,0.93
2023-03-27T04:53:26.856Z,0.32
2023-03-27T04:53:58.179Z,0.45
2023-03-27T04:54:29.615Z,0.75
2023-03-27T04:55:01.163Z,0.10
2023-03-27T04:55:32.696Z,0.45
2023-03-27T04:56:04.901Z,0.50
2023-03-27T04:56:36.312Z,0.40
2023-03-27T04:57:07.852Z,0.30
2023-03-27T04:57:39.246Z,0.57
2023-03-27T04:58:10.658Z,0.68
2023-03-27T04:58:42.024Z,0.40
2023-03-27T04:59:13.379Z,0.52
2023-03-27T04:59:44.720Z,1.02
2023-03-27T05:00:16.280Z,0.87
2023-03-27T05:00:47.742Z,1.00
2023-03-27T05:01:19.151Z,0.60
2023-03-27T05:01:50.570Z,0.90
2023-03-27T05:02:21.969Z,0.90
2023-03-27T05:02:53.462Z,0.40
2023-03-27T05:03:24.874Z,0.70
2023-03-27T05:03:56.450Z,0.70
2023-03-27T05:04:28.288Z,0.73
2023-03-27T05:04:59.668Z,0.63
2023-03-27T05:05:31.070Z,0.60
2023-03-27T05:06:02.818Z,0.52
2023-03-27T05:06:34.183Z,0.50
2023-03-27T05:07:05.587Z,0.47
2023-03-27T05:07:37.563Z,0.20
2023-03-27T05:08:09.155Z,0.65
2023-03-27T05:08:40.918Z,0.70
2023-03-27T05:09:12.283Z,0.60
2023-03-27T05:09:43.634Z,0.60
2023-03-27T05:10:15.521Z,0.47
2023-03-27T05:10:46.872Z,0.50
2023-03-27T05:11:18.284Z,0.40
2023-03-27T05:11:49.957Z,0.60
2023-03-27T05:12:21.610Z,0.40
2023-03-27T05:12:53.540Z,0.80
2023-03-27T05:13:25.644Z,0.70
2023-03-27T05:13:56.993Z,0.45
2023-03-27T05:14:28.352Z,0.40
2023-03-27T05:14:59.732Z,0.45
2023-03-27T05:15:31.122Z,0.35
2023-03-27T05:16:02.544Z,0.40
2023-03-27T05:16:33.984Z,0.57
2023-03-27T05:17:05.421Z,0.50
2023-03-27T05:17:40.301Z,0.52
2023-03-27T05:18:11.699Z,0.45
2023-03-27T05:18:43.445Z,0.68
2023-03-27T05:19:14.796Z,0.55
2023-03-27T05:19:46.323Z,0.32
2023-03-27T05:20:17.722Z,0.50
2023-03-27T05:20:49.096Z,0.40
2023-03-27T05:21:20.463Z,0.70
2023-03-27T05:21:51.826Z,0.38
2023-03-27T05:22:23.241Z,1.05
2023-03-27T05:22:55.426Z,0.73
2023-03-27T05:23:27.510Z,0.70
2023-03-27T05:23:58.859Z,0.55
2023-03-27T05:24:30.216Z,0.68
2023-03-27T05:25:01.598Z,0.75
2023-03-27T05:25:33.218Z,0.70
2023-03-27T05:26:04.732Z,0.82
2023-03-27T05:26:38.394Z,0.88
2023-03-27T05:27:09.941Z,0.50
2023-03-27T05:27:48.161Z,0.50
2023-03-27T05:28:19.534Z,0.55
2023-03-27T05:28:50.902Z,0.80
2023-03-27T05:29:22.261Z,0.47
2023-03-27T05:29:53.616Z,0.60
2023-03-27T05:30:25.155Z,1.23
2023-03-27T05:30:57.211Z,1.30
2023-03-27T05:31:30.000Z,1.45
2023-03-27T05:32:01.693Z,1.70
2023-03-27T05:32:33.110Z,0.70
2023-03-27T05:33:04.687Z,0.90
2023-03-27T05:33:36.126Z,1.02
2023-03-27T05:34:07.517Z,0.95
2023-03-27T05:34:38.954Z,0.60
2023-03-27T05:35:10.358Z,0.68
2023-03-27T05:35:41.748Z,1.45
2023-03-27T05:36:13.166Z,0.88
2023-03-27T05:36:46.141Z,0.60
2023-03-27T05:37:17.580Z,0.50
2023-03-27T05:37:49.939Z,0.80
2023-03-27T05:38:21.291Z,0.88
2023-03-27T05:38:52.845Z,0.63
2023-03-27T05:39:24.267Z,0.90
2023-03-27T05:39:55.596Z,1.00
2023-03-27T05:40:27.663Z,0.75
2023-03-27T05:40:59.172Z,0.88
2023-03-27T05:41:30.618Z,0.60
2023-03-27T05:42:02.249Z,0.50
2023-03-27T05:42:33.604Z,1.00
2023-03-27T05:43:05.471Z,0.80
2023-03-27T05:43:37.022Z,0.83
2023-03-27T05:44:08.368Z,0.65
2023-03-27T05:44:40.124Z,0.85
2023-03-27T05:45:11.972Z,0.40
2023-03-27T05:45:43.444Z,0.77
2023-03-27T05:46:20.654Z,0.85
2023-03-27T05:46:52.818Z,1.40
2023-03-27T05:47:24.329Z,1.08
2023-03-27T05:47:59.640Z,2.13
2023-03-27T05:48:31.045Z,1.08
2023-03-27T05:49:02.393Z,0.90
2023-03-27T05:49:34.263Z,0.60
2023-03-27T05:50:06.122Z,0.50
2023-03-27T05:50:37.508Z,0.82
2023-03-27T05:51:08.884Z,1.00
2023-03-27T05:51:40.253Z,1.20
2023-03-27T05:52:18.820Z,0.70
2023-03-27T05:52:57.219Z,0.82
2023-03-27T05:53:29.040Z,1.10
2023-03-27T05:54:00.523Z,0.82
2023-03-27T05:54:32.078Z,1.38
2023-03-27T05:55:03.982Z,1.25
2023-03-27T05:55:35.555Z,1.48
2023-03-27T05:56:07.452Z,1.65
2023-03-27T05:56:38.834Z,0.70
2023-03-27T05:57:10.318Z,0.82
2023-03-27T05:57:41.833Z,1.02
2023-03-27T05:58:13.389Z,0.80
2023-03-27T05:58:44.821Z,1.15
2023-03-27T05:59:16.184Z,1.13
2023-03-27T05:59:47.530Z,0.75
2023-03-27T06:00:19.249Z,0.80
2023-03-27T06:00:50.615Z,0.77
2023-03-27T06:01:21.990Z,1.70
2023-03-27T06:01:53.340Z,0.70
2023-03-27T06:02:24.772Z,0.50
2023-03-27T06:02:57.322Z,0.60
2023-03-27T06:03:29.439Z,0.68
2023-03-27T06:04:00.913Z,0.70
2023-03-27T06:04:32.337Z,0.77
2023-03-27T06:05:03.829Z,0.68
2023-03-27T06:05:35.408Z,0.65
2023-03-27T06:06:07.886Z,1.60
2023-03-27T06:06:39.225Z,0.50
2023-03-27T06:07:10.592Z,1.20
2023-03-27T06:07:43.409Z,0.65
2023-03-27T06:08:15.160Z,1.25
2023-03-27T06:08:46.519Z,0.60
2023-03-27T06:09:17.873Z,0.68
2023-03-27T06:09:49.186Z,0.95
2023-03-27T06:10:20.807Z,0.80
2023-03-27T06:10:52.173Z,0.90
2023-03-27T06:11:23.567Z,1.20
2023-03-27T06:11:54.982Z,0.98
2023-03-27T06:12:26.374Z,0.50
2023-03-27T06:12:58.645Z,1.20
2023-03-27T06:13:30.104Z,1.63
2023-03-27T06:14:01.604Z,0.85
2023-03-27T06:14:32.970Z,1.48
2023-03-27T06:15:05.126Z,2.65
2023-03-27T06:15:38.652Z,2.50
2023-03-27T06:16:10.335Z,2.05
2023-03-27T06:16:41.843Z,2.35
2023-03-27T06:17:13.244Z,2.38
2023-03-27T06:17:46.814Z,1.90
2023-03-27T06:18:18.193Z,1.30
2023-03-27T06:18:49.649Z,1.10
2023-03-27T06:19:21.030Z,1.20
2023-03-27T06:19:52.440Z,1.65
2023-03-27T06:20:23.854Z,1.10
2023-03-27T06:20:55.360Z,1.53
2023-03-27T06:21:27.419Z,2.60
2023-03-27T06:21:58.781Z,1.33
2023-03-27T06:22:30.107Z,1.15
2023-03-27T06:23:02.099Z,0.88
2023-03-27T06:23:33.606Z,0.82
2023-03-27T06:24:05.088Z,1.10
2023-03-27T06:24:36.449Z,1.35
2023-03-27T06:25:08.063Z,1.02
2023-03-27T06:25:39.560Z,0.90
2023-03-27T06:26:10.979Z,0.80
2023-03-27T06:26:42.397Z,1.38
2023-03-27T06:27:13.797Z,1.10
2023-03-27T06:27:46.210Z,1.10
2023-03-27T06:28:17.679Z,1.52
2023-03-27T06:28:49.110Z,1.30
2023-03-27T06:29:20.646Z,1.20
2023-03-27T06:29:51.994Z,1.55
2023-03-27T06:30:24.430Z,0.98
2023-03-27T06:30:55.865Z,0.90
2023-03-27T06:31:27.360Z,0.90
2023-03-27T06:31:58.825Z,1.30
2023-03-27T06:32:30.339Z,1.80
2023-03-27T06:33:01.830Z,0.80
2023-03-27T06:33:33.383Z,1.23
2023-03-27T06:34:04.792Z,1.17
2023-03-27T06:34:36.089Z,1.38
2023-03-27T06:35:07.621Z,1.08
2023-03-27T06:35:39.076Z,0.75
2023-03-27T06:36:10.711Z,0.65
2023-03-27T06:36:42.236Z,1.00
2023-03-27T06:37:16.677Z,0.95
2023-03-27T06:37:50.700Z,0.70
2023-03-27T06:38:22.428Z,0.55
2023-03-27T06:38:53.870Z,0.60
2023-03-27T06:39:25.408Z,0.95
2023-03-27T06:39:56.875Z,0.70
2023-03-27T06:40:29.035Z,0.60
2023-03-27T06:41:00.663Z,1.27
2023-03-27T06:41:32.135Z,0.85
2023-03-27T06:42:03.628Z,0.68
2023-03-27T06:42:35.020Z,0.90
2023-03-27T06:43:07.785Z,0.90
2023-03-27T06:43:39.228Z,0.85
2023-03-27T06:44:10.628Z,0.90
2023-03-27T06:44:42.029Z,0.98
2023-03-27T06:45:13.484Z,0.70
2023-03-27T06:45:46.308Z,0.68
2023-03-27T06:46:17.723Z,0.95
2023-03-27T06:46:49.216Z,0.95
2023-03-27T06:47:20.710Z,0.67
2023-03-27T06:47:55.209Z,0.70
2023-03-27T06:48:28.106Z,0.50
2023-03-27T06:48:59.483Z,0.70
2023-03-27T06:49:30.840Z,0.90
2023-03-27T06:50:02.198Z,0.40
2023-03-27T06:50:33.985Z,0.90
2023-03-27T06:51:05.680Z,0.98
2023-03-27T06:51:39.032Z,0.70
2023-03-27T06:52:10.423Z,0.65
2023-03-27T06:52:41.869Z,0.63
2023-03-27T06:53:25.918Z,0.50
2023-03-27T06:53:58.381Z,0.60
2023-03-27T06:54:29.764Z,1.55
2023-03-27T06:55:01.169Z,0.88
2023-03-27T06:55:33.251Z,0.52
2023-03-27T06:56:04.883Z,0.40
2023-03-27T06:56:36.322Z,0.50
2023-03-27T06:57:07.818Z,0.55
2023-03-27T06:57:43.039Z,0.70
2023-03-27T06:58:14.381Z,0.43
2023-03-27T06:58:45.887Z,0.90
2023-03-27T06:59:19.294Z,1.75
2023-03-27T06:59:50.676Z,0.98
2023-03-27T07:00:23.047Z,0.75
2023-03-27T07:00:54.517Z,1.50
2023-03-27T07:01:25.962Z,1.98
2023-03-27T07:01:57.384Z,1.50
2023-03-27T07:02:28.893Z,0.63
2023-03-27T07:03:04.364Z,1.40
2023-03-27T07:03:35.772Z,2.15
2023-03-27T07:04:07.260Z,1.63
2023-03-27T07:04:38.721Z,3.03
2023-03-27T07:05:10.104Z,1.98
2023-03-27T07:05:42.032Z,2.58
2023-03-27T07:06:13.476Z,2.00
2023-03-27T07:06:44.839Z,1.13
2023-03-27T07:07:16.181Z,0.88
2023-03-27T07:07:49.061Z,1.92
2023-03-27T07:08:24.978Z,0.98
2023-03-27T07:08:56.880Z,0.80
2023-03-27T07:09:28.254Z,0.80
2023-03-27T07:09:59.588Z,1.10
2023-03-27T07:10:30.960Z,1.58
2023-03-27T07:11:11.747Z,2.85
2023-03-27T07:11:43.743Z,2.85
2023-03-27T07:12:15.256Z,1.13
2023-03-27T07:12:47.493Z,1.50
2023-03-27T07:13:18.849Z,1.25
2023-03-27T07:13:50.258Z,1.00
2023-03-27T07:14:21.639Z,0.82
2023-03-27T07:14:53.035Z,0.80
2023-03-27T07:15:24.838Z,0.60
2023-03-27T07:15:56.291Z,0.90
2023-03-27T07:16:27.969Z,0.50
2023-03-27T07:16:59.444Z,0.63
2023-03-27T07:17:42.106Z,0.60
2023-03-27T07:18:19.894Z,0.50
2023-03-27T07:18:51.305Z,0.60
2023-03-27T07:19:22.766Z,0.63
2023-03-27T07:19:54.141Z,0.40
2023-03-27T07:20:26.396Z,0.50
2023-03-27T07:20:57.968Z,0.52
2023-03-27T07:21:29.515Z,0.33
2023-03-27T07:22:00.917Z,0.55
2023-03-27T07:22:32.308Z,1.17
2023-03-27T07:23:04.208Z,0.95
2023-03-27T07:23:35.577Z,0.80
2023-03-27T07:24:07.026Z,0.77
2023-03-27T07:24:38.396Z,0.88
2023-03-27T07:25:10.294Z,1.02
2023-03-27T07:25:41.679Z,0.80
2023-03-27T07:26:13.347Z,0.35